sensor_id;sensor_type;location;lat;lon;timestamp;P1;durP1;ratioP1;P2;durP2;ratioP2
24681;SDS011;12802;53.390;-2.328;2022-12-07T00:01:05;16.92;;;6.75;;
24681;SDS011;12802;53.390;-2.328;2022-12-07T00:03:32;14.65;;;5.65;;
24681;SDS011;12802;53.390;-2.328;2022-12-07T00:05:58;12.27;;;6.53;;
24681;SDS011;12802;53.390;-2.328;2022-12-07T00:08:25;12.23;;;6.47;;
24681;SDS011;12802;53.390;-2.328;2022-12-07T00:10:51;12.90;;;6.68;;
24681;SDS011;12802;53.390;-2.328;2022-12-07T00:13:17;16.52;;;6.32;;
24681;SDS011;12802;53.390;-2.328;2022-12-07T00:15:42;10.93;;;6.72;;
24681;SDS011;12802;53.390;-2.328;2022-12-07T00:18:08;14.93;;;7.20;;
24681;SDS011;12802;53.390;-2.328;2022-12-07T00:20:34;12.60;;;6.70;;
24681;SDS011;12802;53.390;-2.328;2022-12-07T00:23:00;11.93;;;6.20;;
24681;SDS011;12802;53.390;-2.328;2022-12-07T00:25:25;12.68;;;6.93;;
24681;SDS011;12802;53.390;-2.328;2022-12-07T00:27:52;15.93;;;6.90;;
24681;SDS011;12802;53.390;-2.328;2022-12-07T00:30:20;10.60;;;6.43;;
24681;SDS011;12802;53.390;-2.328;2022-12-07T00:32:47;13.27;;;5.72;;
24681;SDS011;12802;53.390;-2.328;2022-12-07T00:35:12;21.70;;;6.07;;
24681;SDS011;12802;53.390;-2.328;2022-12-07T00:37:39;12.25;;;6.25;;
24681;SDS011;12802;53.390;-2.328;2022-12-07T00:40:05;9.65;;;5.32;;
24681;SDS011;12802;53.390;-2.328;2022-12-07T00:42:31;12.77;;;7.95;;
24681;SDS011;12802;53.390;-2.328;2022-12-07T00:44:57;15.65;;;7.00;;
24681;SDS011;12802;53.390;-2.328;2022-12-07T00:47:22;14.43;;;5.95;;
24681;SDS011;12802;53.390;-2.328;2022-12-07T00:49:48;10.77;;;5.57;;
24681;SDS011;12802;53.390;-2.328;2022-12-07T00:52:14;10.05;;;5.82;;
24681;SDS011;12802;53.390;-2.328;2022-12-07T00:54:40;12.38;;;6.60;;
24681;SDS011;12802;53.390;-2.328;2022-12-07T00:57:05;10.40;;;5.35;;
24681;SDS011;12802;53.390;-2.328;2022-12-07T00:59:31;14.95;;;5.82;;
24681;SDS011;12802;53.390;-2.328;2022-12-07T01:01:57;6.70;;;5.32;;
24681;SDS011;12802;53.390;-2.328;2022-12-07T01:04:23;7.75;;;5.47;;
24681;SDS011;12802;53.390;-2.328;2022-12-07T01:06:48;9.48;;;5.05;;
24681;SDS011;12802;53.390;-2.328;2022-12-07T01:09:14;9.07;;;5.13;;
24681;SDS011;12802;53.390;-2.328;2022-12-07T01:11:40;11.30;;;5.28;;
24681;SDS011;12802;53.390;-2.328;2022-12-07T01:14:06;12.02;;;5.10;;
24681;SDS011;12802;53.390;-2.328;2022-12-07T01:16:32;11.18;;;5.13;;
24681;SDS011;12802;53.390;-2.328;2022-12-07T01:18:58;9.05;;;5.40;;
24681;SDS011;12802;53.390;-2.328;2022-12-07T01:21:26;11.40;;;6.05;;
24681;SDS011;12802;53.390;-2.328;2022-12-07T01:23:53;9.55;;;5.75;;
24681;SDS011;12802;53.390;-2.328;2022-12-07T01:26:21;12.52;;;5.78;;
24681;SDS011;12802;53.390;-2.328;2022-12-07T01:28:48;10.90;;;5.35;;
24681;SDS011;12802;53.390;-2.328;2022-12-07T01:31:15;14.40;;;6.60;;
24681;SDS011;12802;53.390;-2.328;2022-12-07T01:33:47;13.65;;;6.40;;
24681;SDS011;12802;53.390;-2.328;2022-12-07T01:36:16;11.52;;;5.38;;
24681;SDS011;12802;53.390;-2.328;2022-12-07T01:38:50;12.02;;;6.15;;
24681;SDS011;12802;53.390;-2.328;2022-12-07T01:41:21;11.93;;;5.95;;
24681;SDS011;12802;53.390;-2.328;2022-12-07T01:46:53;13.43;;;5.72;;
24681;SDS011;12802;53.390;-2.328;2022-12-07T01:54:42;11.05;;;4.78;;
24681;SDS011;12802;53.390;-2.328;2022-12-07T01:57:10;9.75;;;6.10;;
24681;SDS011;12802;53.390;-2.328;2022-12-07T01:59:38;13.60;;;5.70;;
24681;SDS011;12802;53.390;-2.328;2022-12-07T02:02:07;14.30;;;5.53;;
24681;SDS011;12802;53.390;-2.328;2022-12-07T02:04:37;9.88;;;5.57;;
24681;SDS011;12802;53.390;-2.328;2022-12-07T02:07:03;9.80;;;5.63;;
24681;SDS011;12802;53.390;-2.328;2022-12-07T02:09:30;12.27;;;5.25;;
24681;SDS011;12802;53.390;-2.328;2022-12-07T02:11:55;8.50;;;5.55;;
24681;SDS011;12802;53.390;-2.328;2022-12-07T02:14:22;14.23;;;5.50;;
24681;SDS011;12802;53.390;-2.328;2022-12-07T02:16:54;11.60;;;6.95;;
24681;SDS011;12802;53.390;-2.328;2022-12-07T02:22:41;14.70;;;5.35;;
24681;SDS011;12802;53.390;-2.328;2022-12-07T02:28:33;18.70;;;5.65;;
24681;SDS011;12802;53.390;-2.328;2022-12-07T02:31:04;6.38;;;4.60;;
24681;SDS011;12802;53.390;-2.328;2022-12-07T02:33:40;10.48;;;5.95;;
24681;SDS011;12802;53.390;-2.328;2022-12-07T02:36:27;18.92;;;6.60;;
24681;SDS011;12802;53.390;-2.328;2022-12-07T02:39:07;9.45;;;5.38;;
24681;SDS011;12802;53.390;-2.328;2022-12-07T02:41:39;9.45;;;5.55;;
24681;SDS011;12802;53.390;-2.328;2022-12-07T02:44:17;15.05;;;5.95;;
24681;SDS011;12802;53.390;-2.328;2022-12-07T02:46:48;12.15;;;5.65;;
24681;SDS011;12802;53.390;-2.328;2022-12-07T02:49:19;10.93;;;5.85;;
24681;SDS011;12802;53.390;-2.328;2022-12-07T02:51:48;16.88;;;6.30;;
24681;SDS011;12802;53.390;-2.328;2022-12-07T02:54:15;14.85;;;6.28;;
24681;SDS011;12802;53.390;-2.328;2022-12-07T03:13:04;12.75;;;6.20;;
24681;SDS011;12802;53.390;-2.328;2022-12-07T03:18:13;15.20;;;4.40;;
24681;SDS011;12802;53.390;-2.328;2022-12-07T03:20:42;13.57;;;6.30;;
24681;SDS011;12802;53.390;-2.328;2022-12-07T03:23:09;16.45;;;5.65;;
24681;SDS011;12802;53.390;-2.328;2022-12-07T03:25:41;8.32;;;6.10;;
24681;SDS011;12802;53.390;-2.328;2022-12-07T03:28:10;17.50;;;6.50;;
24681;SDS011;12802;53.390;-2.328;2022-12-07T03:30:50;14.52;;;7.30;;
24681;SDS011;12802;53.390;-2.328;2022-12-07T03:33:42;10.75;;;6.68;;
24681;SDS011;12802;53.390;-2.328;2022-12-07T03:36:22;13.38;;;6.97;;
24681;SDS011;12802;53.390;-2.328;2022-12-07T03:39:12;10.85;;;5.47;;
24681;SDS011;12802;53.390;-2.328;2022-12-07T03:41:59;13.75;;;5.72;;
24681;SDS011;12802;53.390;-2.328;2022-12-07T03:44:25;16.50;;;6.85;;
24681;SDS011;12802;53.390;-2.328;2022-12-07T03:46:56;9.75;;;5.43;;
24681;SDS011;12802;53.390;-2.328;2022-12-07T03:49:52;14.32;;;5.38;;
24681;SDS011;12802;53.390;-2.328;2022-12-07T03:52:55;9.00;;;5.85;;
24681;SDS011;12802;53.390;-2.328;2022-12-07T03:55:34;7.25;;;5.22;;
24681;SDS011;12802;53.390;-2.328;2022-12-07T03:58:04;7.78;;;5.43;;
24681;SDS011;12802;53.390;-2.328;2022-12-07T04:02:58;13.88;;;6.47;;
24681;SDS011;12802;53.390;-2.328;2022-12-07T04:05:24;11.57;;;6.15;;
24681;SDS011;12802;53.390;-2.328;2022-12-07T04:07:50;11.15;;;6.25;;
24681;SDS011;12802;53.390;-2.328;2022-12-07T04:10:16;13.55;;;6.95;;
24681;SDS011;12802;53.390;-2.328;2022-12-07T04:12:42;11.18;;;6.13;;
24681;SDS011;12802;53.390;-2.328;2022-12-07T04:15:08;10.60;;;6.43;;
24681;SDS011;12802;53.390;-2.328;2022-12-07T04:17:34;11.63;;;6.60;;
24681;SDS011;12802;53.390;-2.328;2022-12-07T04:20:00;18.10;;;5.28;;
24681;SDS011;12802;53.390;-2.328;2022-12-07T04:22:26;14.77;;;6.50;;
24681;SDS011;12802;53.390;-2.328;2022-12-07T04:24:52;13.95;;;5.95;;
24681;SDS011;12802;53.390;-2.328;2022-12-07T04:27:17;13.10;;;5.60;;
24681;SDS011;12802;53.390;-2.328;2022-12-07T04:29:43;11.13;;;7.22;;
24681;SDS011;12802;53.390;-2.328;2022-12-07T04:32:09;10.90;;;5.95;;
24681;SDS011;12802;53.390;-2.328;2022-12-07T04:34:35;16.90;;;6.43;;
24681;SDS011;12802;53.390;-2.328;2022-12-07T04:37:00;15.90;;;5.70;;
24681;SDS011;12802;53.390;-2.328;2022-12-07T04:39:27;9.90;;;6.10;;
24681;SDS011;12802;53.390;-2.328;2022-12-07T04:41:54;8.98;;;5.50;;
24681;SDS011;12802;53.390;-2.328;2022-12-07T04:44:21;16.63;;;4.90;;
24681;SDS011;12802;53.390;-2.328;2022-12-07T04:46:48;18.00;;;6.07;;
24681;SDS011;12802;53.390;-2.328;2022-12-07T04:49:15;14.35;;;6.53;;
24681;SDS011;12802;53.390;-2.328;2022-12-07T04:51:43;11.88;;;6.13;;
24681;SDS011;12802;53.390;-2.328;2022-12-07T04:54:09;9.20;;;6.00;;
24681;SDS011;12802;53.390;-2.328;2022-12-07T04:56:35;13.27;;;6.82;;
24681;SDS011;12802;53.390;-2.328;2022-12-07T04:59:02;14.05;;;6.43;;
24681;SDS011;12802;53.390;-2.328;2022-12-07T05:01:28;9.07;;;5.95;;
24681;SDS011;12802;53.390;-2.328;2022-12-07T05:03:54;16.33;;;6.32;;
24681;SDS011;12802;53.390;-2.328;2022-12-07T05:06:19;16.13;;;6.03;;
24681;SDS011;12802;53.390;-2.328;2022-12-07T05:08:45;8.65;;;5.72;;
24681;SDS011;12802;53.390;-2.328;2022-12-07T05:11:12;13.30;;;6.25;;
24681;SDS011;12802;53.390;-2.328;2022-12-07T05:13:58;15.07;;;5.72;;
24681;SDS011;12802;53.390;-2.328;2022-12-07T05:16:24;11.50;;;5.75;;
24681;SDS011;12802;53.390;-2.328;2022-12-07T05:18:50;10.27;;;5.63;;
24681;SDS011;12802;53.390;-2.328;2022-12-07T05:21:16;10.75;;;5.78;;
24681;SDS011;12802;53.390;-2.328;2022-12-07T05:23:42;8.52;;;5.47;;
24681;SDS011;12802;53.390;-2.328;2022-12-07T05:26:07;12.65;;;5.85;;
24681;SDS011;12802;53.390;-2.328;2022-12-07T05:28:33;11.63;;;5.47;;
24681;SDS011;12802;53.390;-2.328;2022-12-07T05:30:59;12.93;;;6.88;;
24681;SDS011;12802;53.390;-2.328;2022-12-07T05:33:24;11.90;;;6.03;;
24681;SDS011;12802;53.390;-2.328;2022-12-07T05:35:50;20.00;;;7.43;;
24681;SDS011;12802;53.390;-2.328;2022-12-07T05:38:16;13.15;;;5.93;;
24681;SDS011;12802;53.390;-2.328;2022-12-07T05:40:42;9.40;;;5.95;;
24681;SDS011;12802;53.390;-2.328;2022-12-07T05:43:07;12.45;;;6.70;;
24681;SDS011;12802;53.390;-2.328;2022-12-07T05:45:33;14.05;;;6.28;;
24681;SDS011;12802;53.390;-2.328;2022-12-07T05:47:59;10.45;;;6.70;;
24681;SDS011;12802;53.390;-2.328;2022-12-07T05:50:25;19.45;;;6.65;;
24681;SDS011;12802;53.390;-2.328;2022-12-07T05:52:59;9.35;;;6.22;;
24681;SDS011;12802;53.390;-2.328;2022-12-07T05:55:25;11.88;;;6.38;;
24681;SDS011;12802;53.390;-2.328;2022-12-07T05:57:50;21.98;;;6.95;;
24681;SDS011;12802;53.390;-2.328;2022-12-07T06:00:34;14.43;;;6.13;;
24681;SDS011;12802;53.390;-2.328;2022-12-07T06:03:00;10.40;;;6.40;;
24681;SDS011;12802;53.390;-2.328;2022-12-07T06:05:26;8.20;;;5.35;;
24681;SDS011;12802;53.390;-2.328;2022-12-07T06:07:52;10.40;;;6.18;;
24681;SDS011;12802;53.390;-2.328;2022-12-07T06:10:17;9.13;;;5.78;;
24681;SDS011;12802;53.390;-2.328;2022-12-07T06:12:43;14.98;;;6.47;;
24681;SDS011;12802;53.390;-2.328;2022-12-07T06:15:11;11.07;;;6.63;;
24681;SDS011;12802;53.390;-2.328;2022-12-07T06:17:38;13.93;;;7.82;;
24681;SDS011;12802;53.390;-2.328;2022-12-07T06:20:04;12.27;;;6.30;;
24681;SDS011;12802;53.390;-2.328;2022-12-07T06:22:30;13.65;;;5.75;;
24681;SDS011;12802;53.390;-2.328;2022-12-07T06:24:56;21.20;;;6.13;;
24681;SDS011;12802;53.390;-2.328;2022-12-07T06:27:21;14.15;;;6.97;;
24681;SDS011;12802;53.390;-2.328;2022-12-07T06:29:47;11.50;;;6.18;;
24681;SDS011;12802;53.390;-2.328;2022-12-07T06:32:13;19.10;;;7.18;;
24681;SDS011;12802;53.390;-2.328;2022-12-07T06:34:39;15.05;;;6.40;;
24681;SDS011;12802;53.390;-2.328;2022-12-07T06:37:05;14.02;;;7.25;;
24681;SDS011;12802;53.390;-2.328;2022-12-07T06:39:30;14.32;;;6.93;;
24681;SDS011;12802;53.390;-2.328;2022-12-07T06:41:56;16.10;;;6.60;;
24681;SDS011;12802;53.390;-2.328;2022-12-07T06:44:22;13.93;;;7.85;;
24681;SDS011;12802;53.390;-2.328;2022-12-07T06:46:49;14.57;;;6.85;;
24681;SDS011;12802;53.390;-2.328;2022-12-07T06:49:15;14.40;;;6.93;;
24681;SDS011;12802;53.390;-2.328;2022-12-07T06:51:41;14.50;;;6.95;;
24681;SDS011;12802;53.390;-2.328;2022-12-07T06:54:11;12.65;;;7.10;;
24681;SDS011;12802;53.390;-2.328;2022-12-07T06:56:38;10.70;;;6.65;;
24681;SDS011;12802;53.390;-2.328;2022-12-07T06:59:05;10.35;;;6.65;;
24681;SDS011;12802;53.390;-2.328;2022-12-07T07:01:32;15.02;;;7.30;;
24681;SDS011;12802;53.390;-2.328;2022-12-07T07:03:58;12.95;;;7.82;;
24681;SDS011;12802;53.390;-2.328;2022-12-07T07:06:24;13.45;;;6.57;;
24681;SDS011;12802;53.390;-2.328;2022-12-07T07:08:50;14.43;;;7.00;;
24681;SDS011;12802;53.390;-2.328;2022-12-07T07:11:16;8.95;;;6.05;;
24681;SDS011;12802;53.390;-2.328;2022-12-07T07:13:42;10.70;;;6.60;;
24681;SDS011;12802;53.390;-2.328;2022-12-07T07:16:08;14.50;;;7.53;;
24681;SDS011;12802;53.390;-2.328;2022-12-07T07:18:34;9.90;;;6.63;;
24681;SDS011;12802;53.390;-2.328;2022-12-07T07:21:02;13.25;;;7.78;;
24681;SDS011;12802;53.390;-2.328;2022-12-07T07:23:28;21.60;;;8.43;;
24681;SDS011;12802;53.390;-2.328;2022-12-07T07:25:54;12.35;;;7.10;;
24681;SDS011;12802;53.390;-2.328;2022-12-07T07:28:20;10.75;;;7.03;;
24681;SDS011;12802;53.390;-2.328;2022-12-07T07:30:46;11.15;;;6.32;;
24681;SDS011;12802;53.390;-2.328;2022-12-07T07:33:12;11.88;;;6.55;;
24681;SDS011;12802;53.390;-2.328;2022-12-07T07:35:38;17.52;;;7.20;;
24681;SDS011;12802;53.390;-2.328;2022-12-07T07:38:05;23.25;;;8.52;;
24681;SDS011;12802;53.390;-2.328;2022-12-07T07:40:32;13.63;;;6.65;;
24681;SDS011;12802;53.390;-2.328;2022-12-07T07:42:57;13.10;;;6.53;;
24681;SDS011;12802;53.390;-2.328;2022-12-07T07:45:23;12.00;;;6.57;;
24681;SDS011;12802;53.390;-2.328;2022-12-07T07:47:51;20.13;;;6.25;;
24681;SDS011;12802;53.390;-2.328;2022-12-07T07:50:17;16.05;;;6.68;;
24681;SDS011;12802;53.390;-2.328;2022-12-07T07:52:43;15.90;;;7.15;;
24681;SDS011;12802;53.390;-2.328;2022-12-07T07:55:09;18.55;;;7.60;;
24681;SDS011;12802;53.390;-2.328;2022-12-07T07:57:36;13.35;;;7.20;;
24681;SDS011;12802;53.390;-2.328;2022-12-07T08:00:12;14.57;;;6.40;;
24681;SDS011;12802;53.390;-2.328;2022-12-07T08:02:39;11.05;;;6.70;;
24681;SDS011;12802;53.390;-2.328;2022-12-07T08:05:06;11.77;;;6.55;;
24681;SDS011;12802;53.390;-2.328;2022-12-07T08:07:32;12.13;;;6.32;;
24681;SDS011;12802;53.390;-2.328;2022-12-07T08:09:58;14.93;;;9.77;;
24681;SDS011;12802;53.390;-2.328;2022-12-07T08:12:23;14.00;;;8.02;;
24681;SDS011;12802;53.390;-2.328;2022-12-07T08:14:49;18.02;;;6.72;;
24681;SDS011;12802;53.390;-2.328;2022-12-07T08:17:15;14.18;;;7.40;;
24681;SDS011;12802;53.390;-2.328;2022-12-07T08:19:40;9.85;;;6.90;;
24681;SDS011;12802;53.390;-2.328;2022-12-07T08:22:06;17.60;;;8.10;;
24681;SDS011;12802;53.390;-2.328;2022-12-07T08:24:35;13.70;;;7.53;;
24681;SDS011;12802;53.390;-2.328;2022-12-07T08:27:01;10.43;;;7.32;;
24681;SDS011;12802;53.390;-2.328;2022-12-07T08:29:27;11.88;;;7.13;;
24681;SDS011;12802;53.390;-2.328;2022-12-07T08:31:53;15.48;;;6.93;;
24681;SDS011;12802;53.390;-2.328;2022-12-07T08:34:19;10.80;;;7.55;;
24681;SDS011;12802;53.390;-2.328;2022-12-07T08:36:45;16.38;;;7.63;;
24681;SDS011;12802;53.390;-2.328;2022-12-07T08:39:11;9.75;;;7.22;;
24681;SDS011;12802;53.390;-2.328;2022-12-07T08:41:36;19.80;;;10.45;;
24681;SDS011;12802;53.390;-2.328;2022-12-07T08:44:02;15.38;;;8.30;;
24681;SDS011;12802;53.390;-2.328;2022-12-07T08:46:31;19.25;;;9.02;;
24681;SDS011;12802;53.390;-2.328;2022-12-07T08:49:08;29.52;;;12.18;;
24681;SDS011;12802;53.390;-2.328;2022-12-07T08:51:40;18.90;;;9.82;;
24681;SDS011;12802;53.390;-2.328;2022-12-07T08:54:08;20.50;;;9.95;;
24681;SDS011;12802;53.390;-2.328;2022-12-07T08:56:38;19.67;;;9.63;;
24681;SDS011;12802;53.390;-2.328;2022-12-07T08:59:04;16.98;;;9.57;;
24681;SDS011;12802;53.390;-2.328;2022-12-07T09:01:31;20.75;;;10.23;;
24681;SDS011;12802;53.390;-2.328;2022-12-07T09:03:56;21.00;;;11.65;;
24681;SDS011;12802;53.390;-2.328;2022-12-07T09:06:22;20.77;;;11.13;;
24681;SDS011;12802;53.390;-2.328;2022-12-07T09:08:50;18.67;;;9.63;;
24681;SDS011;12802;53.390;-2.328;2022-12-07T09:11:20;28.48;;;12.55;;
24681;SDS011;12802;53.390;-2.328;2022-12-07T09:13:45;24.17;;;11.48;;
24681;SDS011;12802;53.390;-2.328;2022-12-07T09:16:11;15.98;;;7.47;;
24681;SDS011;12802;53.390;-2.328;2022-12-07T09:18:37;20.90;;;10.55;;
24681;SDS011;12802;53.390;-2.328;2022-12-07T09:21:03;11.48;;;8.40;;
24681;SDS011;12802;53.390;-2.328;2022-12-07T09:23:29;18.38;;;9.75;;
24681;SDS011;12802;53.390;-2.328;2022-12-07T09:25:58;16.33;;;8.43;;
24681;SDS011;12802;53.390;-2.328;2022-12-07T09:28:25;14.75;;;7.82;;
24681;SDS011;12802;53.390;-2.328;2022-12-07T09:30:51;28.25;;;8.60;;
24681;SDS011;12802;53.390;-2.328;2022-12-07T09:33:17;13.88;;;7.95;;
24681;SDS011;12802;53.390;-2.328;2022-12-07T09:35:47;13.00;;;7.88;;
24681;SDS011;12802;53.390;-2.328;2022-12-07T09:38:13;13.07;;;7.70;;
24681;SDS011;12802;53.390;-2.328;2022-12-07T09:40:40;15.77;;;7.85;;
24681;SDS011;12802;53.390;-2.328;2022-12-07T09:43:12;12.23;;;7.73;;
24681;SDS011;12802;53.390;-2.328;2022-12-07T09:45:40;18.50;;;8.02;;
24681;SDS011;12802;53.390;-2.328;2022-12-07T09:48:10;16.40;;;9.40;;
24681;SDS011;12802;53.390;-2.328;2022-12-07T09:50:43;25.38;;;9.00;;
24681;SDS011;12802;53.390;-2.328;2022-12-07T09:53:12;15.35;;;7.18;;
24681;SDS011;12802;53.390;-2.328;2022-12-07T09:55:44;10.52;;;6.93;;
24681;SDS011;12802;53.390;-2.328;2022-12-07T09:58:12;13.85;;;8.25;;
24681;SDS011;12802;53.390;-2.328;2022-12-07T10:00:45;17.42;;;9.60;;
24681;SDS011;12802;53.390;-2.328;2022-12-07T10:03:11;31.17;;;9.38;;
24681;SDS011;12802;53.390;-2.328;2022-12-07T10:05:42;18.27;;;8.88;;
24681;SDS011;12802;53.390;-2.328;2022-12-07T10:08:12;26.45;;;9.68;;
24681;SDS011;12802;53.390;-2.328;2022-12-07T10:10:38;15.95;;;9.90;;
24681;SDS011;12802;53.390;-2.328;2022-12-07T10:13:06;11.80;;;8.55;;
24681;SDS011;12802;53.390;-2.328;2022-12-07T10:15:50;17.67;;;9.75;;
24681;SDS011;12802;53.390;-2.328;2022-12-07T10:18:21;12.55;;;8.13;;
24681;SDS011;12802;53.390;-2.328;2022-12-07T10:23:34;14.82;;;7.30;;
24681;SDS011;12802;53.390;-2.328;2022-12-07T10:28:54;19.23;;;8.05;;
24681;SDS011;12802;53.390;-2.328;2022-12-07T10:32:34;17.55;;;7.72;;
24681;SDS011;12802;53.390;-2.328;2022-12-07T10:34:43;23.00;;;8.07;;
24681;SDS011;12802;53.390;-2.328;2022-12-07T10:37:18;33.90;;;8.48;;
24681;SDS011;12802;53.390;-2.328;2022-12-07T10:39:56;20.90;;;9.15;;
24681;SDS011;12802;53.390;-2.328;2022-12-07T10:42:28;18.52;;;8.48;;
24681;SDS011;12802;53.390;-2.328;2022-12-07T10:45:17;15.00;;;7.43;;
24681;SDS011;12802;53.390;-2.328;2022-12-07T10:50:18;16.02;;;7.82;;
24681;SDS011;12802;53.390;-2.328;2022-12-07T11:00:51;49.53;;;13.02;;
24681;SDS011;12802;53.390;-2.328;2022-12-07T11:11:30;21.70;;;8.45;;
24681;SDS011;12802;53.390;-2.328;2022-12-07T11:14:22;17.85;;;8.30;;
24681;SDS011;12802;53.390;-2.328;2022-12-07T11:17:32;17.08;;;8.30;;
24681;SDS011;12802;53.390;-2.328;2022-12-07T11:30:47;12.70;;;6.07;;
24681;SDS011;12802;53.390;-2.328;2022-12-07T11:36:44;13.38;;;6.90;;
24681;SDS011;12802;53.390;-2.328;2022-12-07T11:41:46;15.05;;;7.38;;
24681;SDS011;12802;53.390;-2.328;2022-12-07T11:49:54;18.10;;;9.35;;
24681;SDS011;12802;53.390;-2.328;2022-12-07T11:52:54;21.02;;;11.20;;
24681;SDS011;12802;53.390;-2.328;2022-12-07T11:58:14;19.48;;;9.90;;
24681;SDS011;12802;53.390;-2.328;2022-12-07T12:00:50;24.17;;;9.90;;
24681;SDS011;12802;53.390;-2.328;2022-12-07T12:03:24;19.23;;;9.40;;
24681;SDS011;12802;53.390;-2.328;2022-12-07T12:05:58;20.60;;;10.38;;
24681;SDS011;12802;53.390;-2.328;2022-12-07T12:08:31;21.45;;;9.77;;
24681;SDS011;12802;53.390;-2.328;2022-12-07T12:11:48;16.40;;;10.25;;
24681;SDS011;12802;53.390;-2.328;2022-12-07T12:14:00;20.67;;;10.32;;
24681;SDS011;12802;53.390;-2.328;2022-12-07T12:23:26;21.83;;;7.93;;
24681;SDS011;12802;53.390;-2.328;2022-12-07T12:25:40;17.60;;;8.48;;
24681;SDS011;12802;53.390;-2.328;2022-12-07T12:28:10;13.02;;;7.30;;
24681;SDS011;12802;53.390;-2.328;2022-12-07T12:31:16;21.48;;;8.18;;
24681;SDS011;12802;53.390;-2.328;2022-12-07T12:33:46;12.20;;;6.95;;
24681;SDS011;12802;53.390;-2.328;2022-12-07T12:46:48;7.72;;;4.10;;
24681;SDS011;12802;53.390;-2.328;2022-12-07T12:56:50;22.38;;;6.03;;
24681;SDS011;12802;53.390;-2.328;2022-12-07T13:02:16;7.60;;;4.53;;
24681;SDS011;12802;53.390;-2.328;2022-12-07T13:04:49;7.45;;;3.92;;
24681;SDS011;12802;53.390;-2.328;2022-12-07T13:15:40;10.70;;;5.65;;
24681;SDS011;12802;53.390;-2.328;2022-12-07T13:28:44;2.25;;;1.83;;
24681;SDS011;12802;53.390;-2.328;2022-12-07T13:33:52;8.18;;;2.83;;
24681;SDS011;12802;53.390;-2.328;2022-12-07T13:36:22;4.97;;;2.45;;
24681;SDS011;12802;53.390;-2.328;2022-12-07T13:38:59;11.93;;;2.70;;
24681;SDS011;12802;53.390;-2.328;2022-12-07T13:41:35;4.50;;;2.58;;
24681;SDS011;12802;53.390;-2.328;2022-12-07T13:46:49;2.03;;;1.77;;
24681;SDS011;12802;53.390;-2.328;2022-12-07T13:49:32;5.15;;;2.30;;
24681;SDS011;12802;53.390;-2.328;2022-12-07T13:52:08;6.85;;;2.42;;
24681;SDS011;12802;53.390;-2.328;2022-12-07T13:54:55;3.85;;;1.90;;
24681;SDS011;12802;53.390;-2.328;2022-12-07T13:57:20;4.70;;;2.13;;
24681;SDS011;12802;53.390;-2.328;2022-12-07T13:59:48;4.50;;;2.42;;
24681;SDS011;12802;53.390;-2.328;2022-12-07T14:02:21;5.90;;;2.33;;
24681;SDS011;12802;53.390;-2.328;2022-12-07T14:07:53;6.95;;;2.35;;
24681;SDS011;12802;53.390;-2.328;2022-12-07T14:14:10;5.03;;;1.63;;
24681;SDS011;12802;53.390;-2.328;2022-12-07T14:16:28;7.63;;;4.80;;
24681;SDS011;12802;53.390;-2.328;2022-12-07T14:19:00;5.80;;;2.60;;
24681;SDS011;12802;53.390;-2.328;2022-12-07T14:21:29;2.17;;;1.93;;
24681;SDS011;12802;53.390;-2.328;2022-12-07T14:26:43;9.85;;;2.10;;
24681;SDS011;12802;53.390;-2.328;2022-12-07T14:31:48;14.02;;;2.58;;
24681;SDS011;12802;53.390;-2.328;2022-12-07T14:34:13;3.63;;;2.10;;
24681;SDS011;12802;53.390;-2.328;2022-12-07T14:36:39;3.75;;;1.77;;
24681;SDS011;12802;53.390;-2.328;2022-12-07T14:39:05;4.43;;;1.90;;
24681;SDS011;12802;53.390;-2.328;2022-12-07T14:41:31;2.92;;;1.85;;
24681;SDS011;12802;53.390;-2.328;2022-12-07T14:44:15;5.50;;;1.90;;
24681;SDS011;12802;53.390;-2.328;2022-12-07T14:46:41;3.10;;;1.40;;
24681;SDS011;12802;53.390;-2.328;2022-12-07T14:49:07;6.50;;;1.60;;
24681;SDS011;12802;53.390;-2.328;2022-12-07T14:51:33;5.82;;;2.22;;
24681;SDS011;12802;53.390;-2.328;2022-12-07T14:54:00;6.07;;;1.75;;
24681;SDS011;12802;53.390;-2.328;2022-12-07T14:56:27;5.50;;;1.98;;
24681;SDS011;12802;53.390;-2.328;2022-12-07T14:58:53;5.28;;;1.63;;
24681;SDS011;12802;53.390;-2.328;2022-12-07T15:01:18;4.22;;;1.73;;
24681;SDS011;12802;53.390;-2.328;2022-12-07T15:03:44;14.13;;;2.40;;
24681;SDS011;12802;53.390;-2.328;2022-12-07T15:06:12;3.45;;;1.67;;
24681;SDS011;12802;53.390;-2.328;2022-12-07T15:11:05;6.03;;;1.38;;
24681;SDS011;12802;53.390;-2.328;2022-12-07T15:13:31;6.00;;;2.05;;
24681;SDS011;12802;53.390;-2.328;2022-12-07T15:16:17;5.93;;;2.38;;
24681;SDS011;12802;53.390;-2.328;2022-12-07T15:18:45;3.88;;;1.85;;
24681;SDS011;12802;53.390;-2.328;2022-12-07T15:21:14;8.93;;;1.80;;
24681;SDS011;12802;53.390;-2.328;2022-12-07T15:23:40;7.15;;;2.40;;
24681;SDS011;12802;53.390;-2.328;2022-12-07T15:26:06;6.25;;;1.77;;
24681;SDS011;12802;53.390;-2.328;2022-12-07T15:28:33;4.97;;;2.25;;
24681;SDS011;12802;53.390;-2.328;2022-12-07T15:30:59;8.55;;;2.40;;
24681;SDS011;12802;53.390;-2.328;2022-12-07T15:33:25;6.07;;;1.60;;
24681;SDS011;12802;53.390;-2.328;2022-12-07T15:35:50;6.88;;;2.20;;
24681;SDS011;12802;53.390;-2.328;2022-12-07T15:38:16;3.00;;;1.52;;
24681;SDS011;12802;53.390;-2.328;2022-12-07T15:40:42;3.05;;;1.80;;
24681;SDS011;12802;53.390;-2.328;2022-12-07T15:43:11;3.83;;;1.70;;
24681;SDS011;12802;53.390;-2.328;2022-12-07T15:45:55;4.13;;;2.00;;
24681;SDS011;12802;53.390;-2.328;2022-12-07T15:48:21;8.52;;;2.03;;
24681;SDS011;12802;53.390;-2.328;2022-12-07T15:50:47;4.95;;;1.83;;
24681;SDS011;12802;53.390;-2.328;2022-12-07T15:53:13;3.45;;;1.92;;
24681;SDS011;12802;53.390;-2.328;2022-12-07T15:55:39;5.50;;;2.05;;
24681;SDS011;12802;53.390;-2.328;2022-12-07T15:58:05;8.32;;;1.98;;
24681;SDS011;12802;53.390;-2.328;2022-12-07T16:00:31;5.22;;;1.98;;
24681;SDS011;12802;53.390;-2.328;2022-12-07T16:02:57;5.65;;;2.03;;
24681;SDS011;12802;53.390;-2.328;2022-12-07T16:05:23;6.57;;;2.15;;
24681;SDS011;12802;53.390;-2.328;2022-12-07T16:07:48;3.70;;;1.88;;
24681;SDS011;12802;53.390;-2.328;2022-12-07T16:10:14;9.25;;;1.85;;
24681;SDS011;12802;53.390;-2.328;2022-12-07T16:12:40;4.03;;;2.80;;
24681;SDS011;12802;53.390;-2.328;2022-12-07T16:15:06;7.18;;;2.63;;
24681;SDS011;12802;53.390;-2.328;2022-12-07T16:17:32;7.57;;;2.55;;
24681;SDS011;12802;53.390;-2.328;2022-12-07T16:19:58;8.50;;;2.75;;
24681;SDS011;12802;53.390;-2.328;2022-12-07T16:22:23;8.27;;;3.40;;
24681;SDS011;12802;53.390;-2.328;2022-12-07T16:24:49;3.72;;;2.20;;
24681;SDS011;12802;53.390;-2.328;2022-12-07T16:27:15;7.35;;;2.03;;
24681;SDS011;12802;53.390;-2.328;2022-12-07T16:29:41;5.82;;;3.00;;
24681;SDS011;12802;53.390;-2.328;2022-12-07T16:32:07;8.25;;;3.35;;
24681;SDS011;12802;53.390;-2.328;2022-12-07T16:34:33;6.93;;;2.95;;
24681;SDS011;12802;53.390;-2.328;2022-12-07T16:36:58;8.00;;;3.08;;
24681;SDS011;12802;53.390;-2.328;2022-12-07T16:39:24;5.32;;;2.58;;
24681;SDS011;12802;53.390;-2.328;2022-12-07T16:41:50;5.28;;;2.67;;
24681;SDS011;12802;53.390;-2.328;2022-12-07T16:44:17;7.78;;;3.33;;
24681;SDS011;12802;53.390;-2.328;2022-12-07T16:46:43;6.60;;;2.95;;
24681;SDS011;12802;53.390;-2.328;2022-12-07T16:49:12;4.13;;;1.85;;
24681;SDS011;12802;53.390;-2.328;2022-12-07T16:51:39;7.72;;;2.80;;
24681;SDS011;12802;53.390;-2.328;2022-12-07T16:54:06;5.15;;;2.88;;
24681;SDS011;12802;53.390;-2.328;2022-12-07T16:56:33;9.93;;;2.55;;
24681;SDS011;12802;53.390;-2.328;2022-12-07T16:58:59;14.88;;;3.65;;
24681;SDS011;12802;53.390;-2.328;2022-12-07T17:01:25;7.40;;;3.40;;
24681;SDS011;12802;53.390;-2.328;2022-12-07T17:03:53;9.75;;;3.75;;
24681;SDS011;12802;53.390;-2.328;2022-12-07T17:06:20;10.93;;;4.38;;
24681;SDS011;12802;53.390;-2.328;2022-12-07T17:08:51;7.22;;;3.45;;